Time;durP1;ratioP1;P1;durP2;ratioP2;P2;SDS_P1;SDS_P2;PMS_P1;PMS_P2;Temp;Humidity;BMP_temperature;BMP_pressure;BME280_temperature;BME280_humidity;BME280_pressure;Samples;Min_cycle;Max_cycle;Signal;HPM_P1;HPM_P2
2023/08/24 00:00:38;;;;;;;0.10;0.10;;;;;;;26.78;57.09;101138.25;4868115;29;20040;-92
2023/08/24 00:03:03;;;;;;;0.10;0.10;;;;;;;26.71;57.05;101142.56;4883800;29;20083;-89
2023/08/24 00:05:29;;;;;;;0.10;0.10;;;;;;;26.64;57.46;101145.03;4867993;29;20032;-91
2023/08/24 00:07:54;;;;;;;0.10;0.10;;;;;;;26.59;57.82;101150.88;4883875;29;20029;-91
2023/08/24 00:10:20;;;;;;;0.10;0.10;;;;;;;26.67;57.55;101133.28;4883385;29;20028;-90
2023/08/24 00:12:45;;;;;;;0.10;0.10;;;;;;;26.73;57.37;101133.41;4867952;29;20419;-90
2023/08/24 00:15:11;;;;;;;0.10;0.10;;;;;;;26.70;57.07;101132.94;4899061;29;20032;-90
2023/08/24 00:17:37;;;;;;;0.10;0.10;;;;;;;26.58;57.71;101141.25;4883205;29;20036;-90
2023/08/24 00:20:05;;;;;;;0.10;0.10;;;;;;;26.60;57.76;101154.34;4883068;29;20035;-89
2023/08/24 00:22:30;;;;;;;0.20;0.20;;;;;;;26.71;57.38;101134.59;4882439;29;20040;-91
2023/08/24 00:24:56;;;;;;;0.10;0.10;;;;;;;26.71;57.15;101147.88;4883433;29;20475;-92
2023/08/24 00:27:21;;;;;;;0.10;0.10;;;;;;;26.62;57.62;101140.91;4883380;29;21211;-90
2023/08/24 00:29:47;;;;;;;0.10;0.10;;;;;;;26.49;57.89;101133.47;4866743;29;20043;-91
2023/08/24 00:32:12;;;;;;;0.20;0.20;;;;;;;26.53;58.23;101130.28;4867409;29;20475;-90
2023/08/24 00:34:38;;;;;;;0.10;0.10;;;;;;;26.56;58.38;101137.94;4883337;29;20407;-92
2023/08/24 00:37:03;;;;;;;0.10;0.10;;;;;;;26.59;58.30;101131.47;4867628;29;20103;-92
2023/08/24 00:39:29;;;;;;;0.10;0.10;;;;;;;26.44;58.71;101131.28;4867624;29;20430;-91
2023/08/24 00:41:54;;;;;;;0.10;0.10;;;;;;;26.62;58.37;101136.44;4883618;29;20034;-92
2023/08/24 00:44:20;;;;;;;0.10;0.10;;;;;;;26.65;58.26;101135.28;4867226;29;20036;-92
2023/08/24 00:46:45;;;;;;;0.20;0.20;;;;;;;26.46;58.75;101131.16;4883202;29;20032;-91
2023/08/24 00:49:11;;;;;;;0.10;0.10;;;;;;;26.27;59.51;101117.19;4898578;29;20038;-90
2023/08/24 00:51:36;;;;;;;0.10;0.10;;;;;;;26.26;59.15;101120.84;4883004;29;20039;-89
2023/08/24 00:54:02;;;;;;;0.10;0.10;;;;;;;26.24;59.82;101128.09;4883133;29;20040;-90
2023/08/24 00:56:29;;;;;;;0.20;0.20;;;;;;;26.31;59.71;101133.59;4882638;29;20487;-91
2023/08/24 00:58:55;;;;;;;0.10;0.10;;;;;;;26.30;59.85;101121.31;4898575;29;20062;-90
2023/08/24 01:01:20;;;;;;;0.17;0.17;;;;;;;26.34;60.11;101127.13;4882871;29;20406;-91
2023/08/24 01:03:46;;;;;;;0.20;0.20;;;;;;;26.22;59.91;101111.53;4866901;29;20087;-92
2023/08/24 01:06:12;;;;;;;0.20;0.20;;;;;;;26.28;59.81;101110.06;4882729;29;20060;-90
2023/08/24 01:08:37;;;;;;;0.10;0.10;;;;;;;26.16;60.07;101111.38;4882631;29;20039;-89
2023/08/24 01:11:05;;;;;;;0.20;0.20;;;;;;;26.15;60.20;101123.78;4867449;29;20039;-92
2023/08/24 01:13:57;;;;;;;0.10;0.10;;;;;;;26.00;60.82;101106.88;4898312;29;20029;-90
2023/08/24 01:16:27;;;;;;;0.10;0.10;;;;;;;25.91;61.01;101090.13;4882810;29;20032;-92
2023/08/24 01:18:56;;;;;;;0.10;0.10;;;;;;;25.96;60.88;101095.78;4867509;29;20028;-91
2023/08/24 01:21:22;;;;;;;0.10;0.10;;;;;;;25.85;61.68;101088.13;4867342;29;20051;-92
2023/08/24 01:23:56;;;;;;;0.17;0.17;;;;;;;25.89;61.24;101078.03;4882968;29;20471;-92
2023/08/24 01:26:22;;;;;;;0.10;0.10;;;;;;;26.04;60.97;101089.63;4898329;29;20526;-92
2023/08/24 01:28:47;;;;;;;0.10;0.10;;;;;;;26.03;61.11;101101.25;4867045;29;20028;-91
2023/08/24 01:31:15;;;;;;;0.20;0.20;;;;;;;26.01;61.10;101096.09;4867215;29;20035;-91
2023/08/24 01:33:40;;;;;;;0.17;0.17;;;;;;;26.06;60.91;101086.84;4883351;29;20068;-90
2023/08/24 01:36:06;;;;;;;0.10;0.10;;;;;;;25.97;61.58;101094.78;4882543;29;20036;-92
2023/08/24 01:38:32;;;;;;;0.10;0.10;;;;;;;25.98;61.59;101095.63;4866758;29;20054;-90
2023/08/24 01:41:06;;;;;;;0.20;0.20;;;;;;;26.05;61.68;101101.06;4882535;29;20030;-90
2023/08/24 01:43:35;;;;;;;0.10;0.10;;;;;;;26.03;60.98;101088.81;4897598;29;20434;-91
2023/08/24 01:46:03;;;;;;;0.10;0.10;;;;;;;26.05;61.24;101090.47;4867867;29;20032;-91
2023/08/24 01:48:29;;;;;;;0.20;0.20;;;;;;;26.11;60.95;101097.78;4882685;29;20435;-92
2023/08/24 01:50:54;;;;;;;0.20;0.20;;;;;;;25.86;61.67;101073.91;4867075;29;20032;-92
2023/08/24 01:53:20;;;;;;;0.10;0.10;;;;;;;25.86;61.84;101095.09;4882633;29;20039;-90
2023/08/24 01:55:46;;;;;;;0.20;0.20;;;;;;;25.87;61.88;101093.28;4866942;29;20028;-92
2023/08/24 01:58:11;;;;;;;0.10;0.10;;;;;;;25.76;62.09;101091.75;4866739;29;20064;-91
2023/08/24 02:00:37;;;;;;;0.10;0.10;;;;;;;25.71;62.42;101094.06;4897593;29;20040;-89
2023/08/24 02:03:02;;;;;;;0.20;0.20;;;;;;;25.57;62.84;101084.91;4866835;29;20462;-91
2023/08/24 02:05:28;;;;;;;0.10;0.10;;;;;;;25.65;62.60;101084.06;4882555;29;20063;-90
2023/08/24 02:07:54;;;;;;;0.10;0.10;;;;;;;25.80;62.28;101089.63;4867153;29;20036;-91
2023/08/24 02:10:20;;;;;;;0.10;0.10;;;;;;;25.80;61.92;101076.38;4882415;29;20040;-91
2023/08/24 02:12:45;;;;;;;0.10;0.10;;;;;;;25.69;62.65;101082.78;4866781;29;20490;-91
2023/08/24 02:15:11;;;;;;;0.10;0.10;;;;;;;25.75;62.36;101079.50;4867316;29;20104;-91
2023/08/24 02:17:36;;;;;;;0.10;0.10;;;;;;;25.65;62.77;101079.59;4870384;29;20040;-89
2023/08/24 02:20:03;;;;;;;0.20;0.20;;;;;;;25.56;62.96;101083.22;4870309;29;20518;-90
2023/08/24 02:22:29;;;;;;;0.20;0.20;;;;;;;25.57;63.25;101095.50;4885834;29;20111;-91
2023/08/24 02:24:55;;;;;;;0.10;0.10;;;;;;;25.64;62.47;101095.66;4870207;29;20032;-91
2023/08/24 02:27:20;;;;;;;0.10;0.10;;;;;;;25.65;62.65;101098.16;4869600;29;20074;-91
2023/08/24 02:29:46;;;;;;;0.10;0.10;;;;;;;25.65;62.59;101099.97;4885504;29;20047;-91
2023/08/24 02:32:11;;;;;;;0.20;0.20;;;;;;;25.58;63.00;101091.84;4869824;29;20031;-93
2023/08/24 02:34:37;;;;;;;0.10;0.10;;;;;;;25.52;63.37;101092.50;4869974;29;20439;-91
2023/08/24 02:37:02;;;;;;;0.20;0.20;;;;;;;25.61;62.96;101090.69;4869568;29;20044;-92
2023/08/24 02:39:28;;;;;;;0.20;0.20;;;;;;;25.55;63.46;101104.56;4869658;29;20043;-92
2023/08/24 02:41:53;;;;;;;0.10;0.10;;;;;;;25.46;63.09;101080.69;4869753;29;20032;-92
2023/08/24 02:44:18;;;;;;;0.20;0.20;;;;;;;25.60;62.75;101097.00;4869859;29;20478;-90
2023/08/24 02:46:44;;;;;;;0.10;0.10;;;;;;;25.51;62.35;101069.66;4869495;29;20051;-90
2023/08/24 02:49:10;;;;;;;0.10;0.10;;;;;;;25.57;63.04;101099.97;4869623;29;20030;-90
2023/08/24 02:51:35;;;;;;;0.20;0.20;;;;;;;25.55;63.28;101109.88;4885088;29;20032;-91
2023/08/24 02:54:01;;;;;;;0.20;0.20;;;;;;;25.57;62.99;101115.88;4884855;29;20036;-90
2023/08/24 02:56:26;;;;;;;0.10;0.10;;;;;;;25.50;62.90;101101.59;4869334;29;20024;-91
2023/08/24 02:58:52;;;;;;;0.10;0.10;;;;;;;25.48;62.76;101092.97;4885148;29;20075;-91
2023/08/24 03:01:18;;;;;;;0.10;0.10;;;;;;;25.42;62.96;101108.50;4885099;29;20028;-89
2023/08/24 03:03:43;;;;;;;0.10;0.10;;;;;;;25.43;62.73;101096.94;4885178;29;20043;-92
2023/08/24 03:06:09;;;;;;;0.10;0.10;;;;;;;25.33;63.28;101100.69;4884686;29;20534;-91
2023/08/24 03:08:35;;;;;;;0.20;0.20;;;;;;;25.34;62.98;101099.69;4885588;29;20110;-91
2023/08/24 03:11:01;;;;;;;0.10;0.10;;;;;;;25.35;62.97;101101.34;4880770;29;20115;-92
2023/08/24 03:13:51;;;;;;;0.10;0.10;;;;;;;25.42;62.83;101111.16;4884432;29;20032;-92
2023/08/24 03:16:52;;;;;;;0.17;0.17;;;;;;;25.35;62.85;101117.25;4911020;29;20020;-92
2023/08/24 03:22:43;;;;;;;0.10;0.10;;;;;;;25.16;62.80;101090.03;4930338;29;20417;-92
2023/08/24 03:25:09;;;;;;;0.10;0.10;;;;;;;24.91;62.89;101050.34;4883143;29;20058;-92
2023/08/24 03:27:41;;;;;;;0.10;0.10;;;;;;;25.33;62.82;101112.13;4878746;29;20072;-91
2023/08/24 03:30:07;;;;;;;0.20;0.20;;;;;;;25.11;62.74;101070.31;4893576;29;20028;-91
2023/08/24 03:32:33;;;;;;;0.10;0.10;;;;;;;25.19;62.54;101088.91;4880903;29;20565;-94
2023/08/24 03:34:59;;;;;;;0.20;0.20;;;;;;;25.10;62.71;101084.56;4878905;29;20032;-91
2023/08/24 03:40:51;;;;;;;0.20;0.20;;;;;;;25.20;62.83;101103.78;4927346;29;20055;-92
2023/08/24 03:43:17;;;;;;;0.10;0.10;;;;;;;25.28;62.77;101119.72;4885959;29;20490;-91
2023/08/24 03:45:44;;;;;;;0.10;0.10;;;;;;;25.36;62.17;101103.00;4925504;29;20438;-90
2023/08/24 03:48:09;;;;;;;0.10;0.10;;;;;;;25.91;60.47;101132.53;4923029;29;20031;-91
2023/08/24 03:50:35;;;;;;;0.10;0.10;;;;;;;26.19;59.61;101134.91;4922024;29;20031;-92
2023/08/24 03:53:00;;;;;;;0.10;0.10;;;;;;;26.25;59.40;101145.69;4921444;29;20051;-92
2023/08/24 03:55:26;;;;;;;0.20;0.20;;;;;;;26.34;59.01;101135.91;4921986;29;20096;-92
2023/08/24 03:57:54;;;;;;;0.20;0.20;;;;;;;26.38;58.66;101134.63;4937844;29;20031;-92
2023/08/24 04:00:19;;;;;;;0.20;0.20;;;;;;;26.28;58.62;101110.06;4921583;29;20031;-92
2023/08/24 04:02:45;;;;;;;0.10;0.10;;;;;;;26.57;58.05;101144.91;4924127;29;20023;-92
2023/08/24 04:05:11;;;;;;;0.10;0.10;;;;;;;26.41;58.73;101147.53;4926904;29;20501;-93
2023/08/24 04:11:00;;;;;;;0.20;0.20;;;;;;;25.72;60.91;101146.06;4935138;29;20094;-92
2023/08/24 04:13:25;;;;;;;0.10;0.10;;;;;;;25.69;61.30;101160.44;4958068;29;20027;-91
2023/08/24 04:15:51;;;;;;;0.10;0.10;;;;;;;25.74;61.56;101152.84;4918070;29;20117;-90
2023/08/24 04:18:16;;;;;;;0.10;0.10;;;;;;;25.63;61.93;101155.78;4942461;29;20474;-88
2023/08/24 04:20:42;;;;;;;0.10;0.10;;;;;;;25.68;61.61;101139.41;4915441;29;20102;-90
2023/08/24 04:23:07;;;;;;;0.20;0.20;;;;;;;25.72;61.05;101149.53;4919809;29;20031;-90
2023/08/24 04:25:33;;;;;;;0.10;0.10;;;;;;;25.68;61.36;101142.06;4916959;29;20031;-92
2023/08/24 04:27:58;;;;;;;0.20;0.20;;;;;;;25.62;61.16;101154.13;4917030;29;20086;-92
2023/08/24 04:30:24;;;;;;;0.20;0.20;;;;;;;25.73;60.97;101151.19;4910125;29;20036;-88
2023/08/24 04:32:50;;;;;;;0.20;0.20;;;;;;;25.70;61.17;101154.19;4917909;29;20023;-91
2023/08/24 04:35:16;;;;;;;0.10;0.10;;;;;;;25.60;61.20;101145.50;4929925;29;20533;-88
2023/08/24 04:37:41;;;;;;;0.10;0.10;;;;;;;25.50;61.51;101152.75;4939298;29;20048;-86
2023/08/24 04:40:07;;;;;;;0.10;0.10;;;;;;;25.69;61.03;101168.41;4915331;29;20147;-90
2023/08/24 04:42:34;;;;;;;0.10;0.10;;;;;;;25.73;61.34;101172.41;4892746;29;20054;-89
2023/08/24 04:44:59;;;;;;;0.10;0.10;;;;;;;25.75;61.15;101161.63;4922753;29;20028;-90
2023/08/24 04:47:24;;;;;;;0.10;0.10;;;;;;;25.81;61.37;101158.34;4918982;29;20054;-89
2023/08/24 04:49:53;;;;;;;0.10;0.10;;;;;;;25.90;60.84;101162.69;4909078;29;20048;-92
2023/08/24 04:52:18;;;;;;;0.20;0.20;;;;;;;26.00;60.71;101157.25;4901129;29;20047;-88
2023/08/24 04:54:44;;;;;;;0.20;0.20;;;;;;;25.87;60.78;101167.50;4914670;29;20035;-89
2023/08/24 04:57:13;;;;;;;0.20;0.20;;;;;;;25.89;60.85;101166.34;4922056;29;20044;-92
2023/08/24 04:59:38;;;;;;;0.10;0.10;;;;;;;25.85;61.72;101164.97;4928598;29;20019;-91
2023/08/24 05:02:03;;;;;;;0.10;0.10;;;;;;;25.99;59.74;101169.69;4926181;29;20039;-89
2023/08/24 05:04:29;;;;;;;0.20;0.20;;;;;;;25.88;60.22;101180.59;4923345;29;20036;-91
2023/08/24 05:06:55;;;;;;;0.20;0.20;;;;;;;25.85;60.65;101164.97;4920494;29;20091;-91
2023/08/24 05:09:20;;;;;;;0.20;0.20;;;;;;;25.94;60.50;101166.66;4894819;29;20040;-90
2023/08/24 05:11:46;;;;;;;0.10;0.10;;;;;;;25.95;59.88;101167.50;4940469;29;20432;-90
2023/08/24 05:14:13;;;;;;;0.10;0.10;;;;;;;25.93;60.03;101146.44;4938890;29;20035;-87
2023/08/24 05:16:38;;;;;;;0.20;0.20;;;;;;;26.12;59.69;101171.84;4921991;29;20038;-91
2023/08/24 05:19:04;;;;;;;0.10;0.10;;;;;;;26.07;59.90;101174.16;4899836;29;20020;-89
2023/08/24 05:21:30;;;;;;;0.10;0.10;;;;;;;26.22;59.73;101185.78;4930817;29;20031;-88
2023/08/24 05:23:55;;;;;;;0.20;0.20;;;;;;;26.16;61.13;101186.47;4914963;29;20034;-89
2023/08/24 05:26:24;;;;;;;0.10;0.10;;;;;;;26.14;61.25;101174.31;4912205;29;20525;-92
2023/08/24 05:28:50;;;;;;;0.20;0.20;;;;;;;26.39;59.91;101181.38;4918477;29;20027;-91
2023/08/24 05:31:15;;;;;;;0.20;0.20;;;;;;;26.41;60.57;101165.28;4902854;29;20091;-84
2023/08/24 05:33:41;;;;;;;0.10;0.10;;;;;;;26.59;59.86;101152.69;4929927;29;20028;-88
2023/08/24 05:36:06;;;;;;;0.10;0.10;;;;;;;26.75;58.94;101170.44;4934232;29;20094;-87
2023/08/24 05:38:32;;;;;;;0.10;0.10;;;;;;;26.64;58.85;101165.44;4919084;29;21063;-89
2023/08/24 05:40:57;;;;;;;0.10;0.10;;;;;;;26.72;59.38;101187.50;4898472;29;20035;-86
2023/08/24 05:43:22;;;;;;;0.10;0.10;;;;;;;26.78;58.71;101188.69;4893013;29;20051;-87
2023/08/24 05:45:48;;;;;;;0.10;0.10;;;;;;;26.69;58.46;101173.75;4926516;29;20044;-90
2023/08/24 05:48:13;;;;;;;0.20;0.20;;;;;;;26.76;58.56;101182.72;4898384;29;20051;-92
2023/08/24 05:50:43;;;;;;;0.20;0.20;;;;;;;26.93;58.14;101194.13;4918584;29;20418;-93
2023/08/24 05:53:08;;;;;;;0.10;0.10;;;;;;;26.89;59.21;101183.03;4918317;29;20057;-91
2023/08/24 05:55:34;;;;;;;0.20;0.20;;;;;;;27.00;57.49;101193.28;4917893;29;20036;-91
2023/08/24 05:57:59;;;;;;;0.10;0.10;;;;;;;27.04;57.87;101188.50;4939086;29;20023;-93
2023/08/24 06:00:25;;;;;;;0.10;0.10;;;;;;;27.11;57.52;101179.69;4915321;29;20036;-92
2023/08/24 06:02:50;;;;;;;0.20;0.20;;;;;;;27.14;57.79;101189.16;4911845;29;20032;-93
2023/08/24 06:05:17;;;;;;;0.10;0.10;;;;;;;27.22;56.62;101175.84;4905956;29;20039;-94
2023/08/24 06:07:43;;;;;;;0.20;0.20;;;;;;;27.29;57.56;101182.13;4918262;29;20124;-90
2023/08/24 06:10:09;;;;;;;0.20;0.20;;;;;;;27.39;56.76;101184.59;4900514;29;20558;-91
2023/08/24 06:12:35;;;;;;;0.20;0.20;;;;;;;27.26;56.75;101171.88;4925500;29;20032;-92
2023/08/24 06:15:03;;;;;;;0.20;0.20;;;;;;;27.57;56.56;101190.50;4927977;29;20079;-94
2023/08/24 06:17:29;;;;;;;0.20;0.20;;;;;;;27.68;56.22;101190.16;4894014;29;20076;-91
2023/08/24 06:19:54;;;;;;;0.20;0.20;;;;;;;27.72;55.94;101185.31;4933264;29;20031;-92
2023/08/24 06:22:19;;;;;;;0.20;0.20;;;;;;;27.81;56.11;101186.94;4926085;29;20040;-93
2023/08/24 06:24:45;;;;;;;0.20;0.20;;;;;;;27.94;55.74;101186.41;4904249;29;20032;-92
2023/08/24 06:27:10;;;;;;;0.20;0.20;;;;;;;27.99;55.76;101192.81;4918099;29;20051;-92
2023/08/24 06:29:36;;;;;;;0.20;0.20;;;;;;;28.04;55.49;101176.34;4927807;29;20032;-93
2023/08/24 06:32:01;;;;;;;0.20;0.20;;;;;;;28.20;55.53;101191.38;4934277;29;20035;-93
2023/08/24 06:34:27;;;;;;;0.20;0.20;;;;;;;28.22;55.69;101190.22;4930239;29;20036;-89
2023/08/24 06:36:53;;;;;;;0.20;0.20;;;;;;;28.40;54.30;101197.91;4928183;29;20501;-90
2023/08/24 06:39:19;;;;;;;0.20;0.20;;;;;;;28.51;53.58;101196.66;4907485;29;20387;-93
2023/08/24 06:41:44;;;;;;;0.20;0.20;;;;;;;28.54;53.51;101175.84;4901070;29;20494;-92
2023/08/24 06:44:11;;;;;;;0.17;0.17;;;;;;;28.72;52.60;101188.84;4902953;29;20095;-90
2023/08/24 06:46:46;;;;;;;0.20;0.20;;;;;;;28.55;54.00;101184.66;4924337;29;20536;-92
2023/08/24 06:49:11;;;;;;;0.20;0.20;;;;;;;28.48;54.13;101184.53;4910389;29;20032;-93
2023/08/24 06:51:37;;;;;;;0.20;0.20;;;;;;;28.67;52.48;101199.19;4924497;29;20040;-91
2023/08/24 06:54:02;;;;;;;0.20;0.20;;;;;;;28.80;52.58;101191.41;4897649;29;20044;-91
2023/08/24 06:56:28;;;;;;;0.20;0.20;;;;;;;28.80;52.49;101188.75;4907418;29;20458;-93
2023/08/24 06:58:58;;;;;;;0.20;0.20;;;;;;;28.78;53.27;101188.13;4918711;29;20024;-94
2023/08/24 07:01:25;;;;;;;0.20;0.20;;;;;;;29.06;52.25;101192.88;4885981;29;20043;-89
2023/08/24 07:03:51;;;;;;;0.20;0.20;;;;;;;29.18;52.63;101196.75;4886752;29;20096;-90
2023/08/24 07:06:16;;;;;;;0.20;0.20;;;;;;;29.12;52.22;101189.50;4886824;29;20465;-92
2023/08/24 07:08:42;;;;;;;0.20;0.20;;;;;;;29.33;51.61;101194.94;4903378;29;20035;-91
2023/08/24 07:11:07;;;;;;;0.20;0.20;;;;;;;29.43;51.62;101190.13;4923706;29;20496;-92
2023/08/24 07:13:32;;;;;;;0.20;0.20;;;;;;;29.50;51.33;101197.41;4918760;29;20058;-89
2023/08/24 07:15:58;;;;;;;0.20;0.20;;;;;;;29.58;50.30;101182.16;4914837;29;20085;-91
2023/08/24 07:18:24;;;;;;;0.20;0.20;;;;;;;29.71;50.28;101184.16;4916648;29;20043;-90
2023/08/24 07:20:49;;;;;;;0.20;0.20;;;;;;;29.78;50.04;101198.38;4902957;29;20031;-88
2023/08/24 07:23:15;;;;;;;0.20;0.20;;;;;;;29.93;50.18;101188.53;4915929;29;20040;-86
2023/08/24 07:25:41;;;;;;;0.20;0.20;;;;;;;30.09;49.88;101189.31;4915757;29;20091;-89
2023/08/24 07:28:07;;;;;;;0.20;0.20;;;;;;;30.14;49.78;101192.25;4917303;29;20030;-92
2023/08/24 07:30:32;;;;;;;0.20;0.20;;;;;;;30.35;48.64;101181.59;4934753;29;20023;-90
2023/08/24 07:32:57;;;;;;;0.20;0.20;;;;;;;30.31;48.75;101180.34;4919661;29;20042;-90
2023/08/24 07:35:26;;;;;;;0.20;0.20;;;;;;;30.51;48.00;101189.34;4906583;29;20035;-93
2023/08/24 07:37:51;;;;;;;0.20;0.20;;;;;;;30.80;47.66;101182.22;4892313;29;20509;-93
2023/08/24 07:40:18;;;;;;;0.20;0.20;;;;;;;30.74;47.55;101182.97;4906313;29;20036;-94
2023/08/24 07:42:48;;;;;;;0.20;0.20;;;;;;;31.00;46.84;101185.03;4905306;29;20139;-91
2023/08/24 07:45:16;;;;;;;0.20;0.20;;;;;;;31.27;46.38;101186.88;4885111;29;20090;-87
2023/08/24 07:47:41;;;;;;;0.20;0.20;;;;;;;31.13;46.16;101177.09;4914982;29;20046;-90
2023/08/24 07:50:08;;;;;;;0.20;0.20;;;;;;;31.29;45.20;101175.97;4912213;29;20031;-91
2023/08/24 07:52:34;;;;;;;0.20;0.20;;;;;;;31.35;44.95;101172.50;4915211;29;20036;-90
2023/08/24 07:55:00;;;;;;;0.20;0.20;;;;;;;31.37;45.42;101160.59;4903153;29;20085;-89
2023/08/24 07:57:26;;;;;;;0.20;0.20;;;;;;;31.47;44.78;101164.75;4923770;29;20031;-89
2023/08/24 07:59:52;;;;;;;0.20;0.20;;;;;;;31.66;43.59;101183.56;4922297;29;20019;-88
2023/08/24 08:02:18;;;;;;;0.20;0.20;;;;;;;31.64;44.00;101174.06;4916237;29;20039;-88
2023/08/24 08:06:03;;;;;;;0.10;0.10;;;;;;;31.86;43.94;101181.00;5065169;27;1730647;-91
2023/08/24 08:08:28;;;;;;;0.10;0.10;;;;;;;31.74;43.81;101163.00;5099116;28;20553;-89
2023/08/24 08:11:01;;;;;;;0.20;0.20;;;;;;;31.83;43.26;101177.88;5120224;28;20032;-92
2023/08/24 08:13:29;;;;;;;0.20;0.20;;;;;;;31.88;42.27;101183.47;5115231;28;20049;-91
2023/08/24 08:16:04;;;;;;;0.20;0.20;;;;;;;31.82;43.53;101170.88;5099241;28;20089;-88
2023/08/24 08:18:31;;;;;;;0.20;0.20;;;;;;;32.10;43.44;101163.53;5092216;28;20110;-87
2023/08/24 08:20:56;;;;;;;0.15;0.15;;;;;;;32.07;43.53;101166.63;5095361;28;20577;-88
2023/08/24 08:23:22;;;;;;;0.20;0.20;;;;;;;32.29;42.84;101166.44;5097764;28;20043;-87
2023/08/24 08:25:48;;;;;;;0.20;0.20;;;;;;;32.39;41.78;101166.91;5123908;28;20401;-92
2023/08/24 08:28:13;;;;;;;0.20;0.20;;;;;;;32.20;41.06;101136.38;5091400;28;20077;-91
2023/08/24 08:30:38;;;;;;;0.20;0.20;;;;;;;32.52;41.47;101157.00;5109507;28;20030;-87
2023/08/24 08:33:04;;;;;;;0.20;0.20;;;;;;;32.49;41.18;101157.41;5108360;28;20024;-90
2023/08/24 08:35:30;;;;;;;0.20;0.20;;;;;;;32.58;41.15;101157.22;5099883;28;20040;-94
2023/08/24 08:37:56;;;;;;;0.20;0.20;;;;;;;32.58;39.60;101152.69;5058056;23;20057;-94
2023/08/24 08:40:21;;;;;;;0.20;0.20;;;;;;;32.54;40.02;101144.22;5051275;28;20025;-87
2023/08/24 08:42:47;;;;;;;0.20;0.20;;;;;;;32.73;40.02;101147.09;5011890;28;20077;-90
2023/08/24 08:45:12;;;;;;;0.20;0.20;;;;;;;32.80;40.76;101148.72;5022504;28;20030;-88
2023/08/24 08:47:38;;;;;;;0.20;0.20;;;;;;;33.00;40.18;101142.53;5025599;28;20414;-88
2023/08/24 08:50:04;;;;;;;0.20;0.20;;;;;;;33.08;39.60;101139.63;5007166;28;20022;-91
2023/08/24 08:52:31;;;;;;;0.20;0.20;;;;;;;33.24;39.49;101144.56;5008239;28;20029;-91
2023/08/24 08:54:56;;;;;;;0.20;0.20;;;;;;;33.28;39.37;101145.75;4991032;28;20036;-89
2023/08/24 08:57:23;;;;;;;0.20;0.20;;;;;;;33.38;39.14;101151.53;5024792;28;20038;-90
2023/08/24 08:59:50;;;;;;;0.20;0.20;;;;;;;33.28;38.93;101156.47;4991013;28;20065;-88
2023/08/24 09:02:17;;;;;;;0.20;0.20;;;;;;;33.48;38.65;101150.25;5025507;28;20032;-93
2023/08/24 09:04:42;;;;;;;0.20;0.20;;;;;;;33.63;38.89;101148.13;5007851;28;20048;-91
2023/08/24 09:07:11;;;;;;;0.20;0.20;;;;;;;33.70;38.89;101132.81;4988748;28;20034;-89
2023/08/24 09:09:37;;;;;;;0.20;0.20;;;;;;;33.69;38.45;101136.53;5024255;28;20026;-85
2023/08/24 09:12:03;;;;;;;0.20;0.20;;;;;;;33.75;38.01;101159.81;5022244;28;20135;-88
2023/08/24 09:14:29;;;;;;;0.20;0.20;;;;;;;33.85;38.06;101135.19;5007125;28;20033;-85
2023/08/24 09:16:54;;;;;;;0.20;0.20;;;;;;;33.80;38.17;101132.34;4996503;28;20033;-91
2023/08/24 09:19:20;;;;;;;0.20;0.20;;;;;;;34.06;38.02;101126.81;4994953;28;20034;-85
2023/08/24 09:21:46;;;;;;;0.20;0.20;;;;;;;33.87;37.82;101095.56;4992072;28;20100;-86
2023/08/24 09:24:12;;;;;;;0.20;0.20;;;;;;;34.28;37.71;101131.81;5024304;28;20033;-85
2023/08/24 09:26:42;;;;;;;0.20;0.20;;;;;;;34.35;37.71;101127.22;4991939;28;20025;-86
2023/08/24 09:29:14;;;;;;;0.20;0.20;;;;;;;34.28;37.73;101121.91;4996070;28;20601;-89
2023/08/24 09:31:40;;;;;;;0.20;0.20;;;;;;;34.48;36.44;101125.25;4992059;28;20030;-86
2023/08/24 09:34:06;;;;;;;0.20;0.20;;;;;;;34.58;36.35;101123.94;5000587;28;20037;-87
2023/08/24 09:36:35;;;;;;;0.20;0.20;;;;;;;34.65;35.87;101122.03;5025712;28;20716;-91
2023/08/24 09:39:04;;;;;;;0.20;0.20;;;;;;;34.84;35.34;101134.44;4994916;28;20036;-88
2023/08/24 09:41:44;;;;;;;0.20;0.20;;;;;;;34.76;35.71;101123.97;5025531;28;20061;-92
2023/08/24 09:44:10;;;;;;;0.20;0.20;;;;;;;34.75;35.20;101125.84;4957124;28;20452;-87
2023/08/24 09:46:38;;;;;;;0.20;0.20;;;;;;;34.89;35.38;101115.78;5007175;28;21207;-84
2023/08/24 09:49:08;;;;;;;0.20;0.20;;;;;;;35.05;34.90;101119.75;5011364;28;20030;-85
2023/08/24 09:51:35;;;;;;;0.20;0.20;;;;;;;35.18;34.77;101127.66;5026153;28;20030;-91
2023/08/24 09:54:05;;;;;;;0.20;0.20;;;;;;;35.26;33.62;101110.41;5006268;28;20022;-89
2023/08/24 09:56:32;;;;;;;0.20;0.20;;;;;;;35.49;33.55;101112.41;4985545;28;20031;-91
2023/08/24 09:58:58;;;;;;;0.28;0.28;;;;;;;35.21;33.60;101107.59;5027441;28;20056;-93
2023/08/24 10:01:23;;;;;;;0.20;0.20;;;;;;;35.25;34.29;101108.75;5030972;28;20496;-94
2023/08/24 10:03:51;;;;;;;0.20;0.20;;;;;;;35.40;34.58;101100.31;4995254;28;20385;-96
2023/08/24 10:06:17;;;;;;;0.20;0.20;;;;;;;35.50;34.09;101095.25;4998247;28;20037;-86
2023/08/24 10:08:48;;;;;;;0.30;0.30;;;;;;;35.79;33.50;101082.78;4989510;28;20042;-92
2023/08/24 10:11:14;;;;;;;0.22;0.22;;;;;;;35.81;33.57;101081.53;5009430;28;20496;-92
2023/08/24 10:13:44;;;;;;;0.20;0.20;;;;;;;36.05;33.38;101087.78;5024216;28;20049;-88
2023/08/24 10:16:09;;;;;;;0.30;0.30;;;;;;;35.99;32.74;101071.72;5012118;28;20022;-91
2023/08/24 10:18:36;;;;;;;0.25;0.25;;;;;;;36.11;32.90;101078.78;5004918;28;20034;-94
2023/08/24 10:21:02;;;;;;;0.20;0.20;;;;;;;35.96;32.28;101062.25;5010622;28;20091;-86
2023/08/24 10:23:29;;;;;;;0.30;0.30;;;;;;;35.96;32.51;101056.88;5010773;28;20444;-91
2023/08/24 10:25:54;;;;;;;0.20;0.20;;;;;;;36.39;32.05;101067.34;5017078;28;20026;-94
2023/08/24 10:28:20;;;;;;;0.20;0.20;;;;;;;36.41;32.33;101064.41;5013694;28;20108;-94
2023/08/24 10:30:45;;;;;;;0.30;0.30;;;;;;;36.53;31.16;101056.31;5011948;28;20084;-95
2023/08/24 10:33:12;;;;;;;0.28;0.28;;;;;;;36.47;31.60;101044.59;5009211;28;20034;-87
2023/08/24 10:35:38;;;;;;;0.20;0.20;;;;;;;36.59;31.69;101047.31;5008995;28;20033;-88
2023/08/24 10:38:04;;;;;;;0.20;0.20;;;;;;;36.72;31.39;101045.16;5009101;28;20084;-88
2023/08/24 10:40:38;;;;;;;0.28;0.28;;;;;;;36.76;31.03;101043.59;4995347;28;20566;-93
2023/08/24 10:43:05;;;;;;;0.30;0.30;;;;;;;36.87;30.81;101041.16;4988162;28;20066;-93
2023/08/24 10:45:58;;;;;;;0.30;0.30;;;;;;;36.82;31.34;101052.63;4993279;28;20026;-90
2023/08/24 10:48:31;;;;;;;0.30;0.30;;;;;;;36.94;30.75;101041.84;5005539;28;20088;-90
2023/08/24 10:51:16;;;;;;;0.30;0.30;;;;;;;36.98;31.19;101040.31;4996599;28;20022;-93
2023/08/24 10:53:52;;;;;;;0.30;0.30;;;;;;;36.88;30.60;101010.47;5003855;28;20098;-89
2023/08/24 10:56:18;;;;;;;0.30;0.30;;;;;;;36.88;30.04;101024.75;5033268;23;20192;-89
2023/08/24 10:58:44;;;;;;;0.20;0.20;;;;;;;36.93;30.38;101024.03;5012992;28;20072;-87
2023/08/24 11:01:19;;;;;;;0.30;0.30;;;;;;;36.83;30.09;100999.56;5012762;28;20033;-88
2023/08/24 11:03:57;;;;;;;0.20;0.20;;;;;;;36.94;30.24;101001.41;5027778;28;20029;-90
2023/08/24 11:06:24;;;;;;;0.30;0.30;;;;;;;37.29;30.17;100994.00;5024479;28;20033;-91
2023/08/24 11:09:13;;;;;;;0.30;0.30;;;;;;;37.20;30.36;100968.44;4993467;28;20033;-89
2023/08/24 11:11:39;;;;;;;0.30;0.30;;;;;;;37.24;29.52;100956.09;5027670;28;20025;-88
2023/08/24 11:14:22;;;;;;;0.30;0.30;;;;;;;37.48;29.48;100988.38;4997183;28;20025;-92
2023/08/24 11:16:48;;;;;;;0.30;0.30;;;;;;;37.17;29.02;100987.81;5031719;28;20403;-91
2023/08/24 11:19:14;;;;;;;0.20;0.20;;;;;;;37.34;29.32;100987.88;4995825;28;20041;-94
2023/08/24 11:21:41;;;;;;;0.30;0.30;;;;;;;37.37;28.32;100965.81;5014710;28;20028;-89
2023/08/24 11:24:07;;;;;;;0.20;0.20;;;;;;;37.71;28.05;100982.81;5019200;28;20053;-90
2023/08/24 11:26:33;;;;;;;0.30;0.30;;;;;;;37.69;27.96;100974.16;5011544;28;20049;-86
2023/08/24 11:28:59;;;;;;;0.30;0.30;;;;;;;37.50;28.55;100987.06;5009905;28;20119;-90
2023/08/24 11:31:24;;;;;;;0.30;0.30;;;;;;;37.38;29.49;100955.84;5010126;28;20488;-87
2023/08/24 11:33:55;;;;;;;0.30;0.30;;;;;;;37.53;29.63;100985.75;5037910;28;20025;-87